Time;durP1;ratioP1;P1;durP2;ratioP2;P2;SDS_P1;SDS_P2;PMS_P1;PMS_P2;Temp;Humidity;BMP_temperature;BMP_pressure;BME280_temperature;BME280_humidity;BME280_pressure;Samples;Min_cycle;Max_cycle;Signal;HPM_P1;HPM_P2
2021/12/08 00:00:50;;;;;;;0.68;0.68;;;2.90;99.90;;;;;;4928678;29;20043;-82
2021/12/08 00:03:16;;;;;;;1.13;0.90;;;2.80;99.90;;;;;;4919116;29;20493;-83
2021/12/08 00:05:44;;;;;;;2.00;1.55;;;2.80;99.90;;;;;;4918744;29;20134;-84
2021/12/08 00:08:11;;;;;;;1.02;1.02;;;2.80;99.90;;;;;;4920242;29;20106;-84
2021/12/08 00:13:02;;;;;;;0.32;0.32;;;2.70;99.90;;;;;;4920328;29;20489;-84
2021/12/08 00:13:39;;;;;;;0.85;0.85;;;2.80;99.90;;;;;;4919604;29;20060;-85
2021/12/08 00:16:11;;;;;;;1.67;1.55;;;2.70;99.90;;;;;;4919268;29;20056;-85
2021/12/08 00:18:44;;;;;;;0.82;0.82;;;2.80;99.90;;;;;;4919175;29;20043;-85
2021/12/08 00:21:10;;;;;;;0.35;0.35;;;2.70;99.90;;;;;;4914478;29;20054;-84
2021/12/08 00:23:36;;;;;;;0.63;0.63;;;2.70;99.90;;;;;;4899976;29;20052;-85
2021/12/08 00:26:03;;;;;;;0.30;0.30;;;2.70;99.90;;;;;;4915973;29;20051;-84
2021/12/08 00:28:29;;;;;;;0.30;0.30;;;2.70;99.90;;;;;;4899972;29;20530;-83
2021/12/08 00:30:57;;;;;;;0.85;0.85;;;2.70;99.90;;;;;;4899718;29;20091;-83
2021/12/08 00:33:24;;;;;;;0.50;0.50;;;2.70;99.90;;;;;;4884628;29;20556;-83
2021/12/08 00:35:52;;;;;;;2.67;1.08;;;2.80;99.90;;;;;;4916900;29;20501;-83
2021/12/08 00:38:19;;;;;;;0.68;0.68;;;2.70;99.90;;;;;;4899686;29;20044;-83
2021/12/08 00:40:46;;;;;;;0.70;0.70;;;2.70;99.90;;;;;;4899888;29;20060;-83
2021/12/08 00:43:13;;;;;;;0.20;0.20;;;2.70;99.90;;;;;;4915813;29;20044;-82
2021/12/08 00:45:38;;;;;;;1.65;0.55;;;2.70;99.90;;;;;;4899812;29;20504;-82
2021/12/08 00:48:04;;;;;;;0.70;0.70;;;2.80;99.90;;;;;;4899523;29;20052;-83
2021/12/08 00:50:33;;;;;;;0.90;0.90;;;2.80;99.90;;;;;;4899914;29;20047;-83
2021/12/08 00:52:59;;;;;;;1.75;1.45;;;2.80;99.90;;;;;;4899454;29;20051;-83
2021/12/08 00:55:26;;;;;;;0.43;0.32;;;2.70;99.90;;;;;;4899639;29;20473;-83
2021/12/08 00:57:52;;;;;;;0.25;0.25;;;2.70;99.90;;;;;;4899742;29;20052;-83
2021/12/08 01:00:30;;;;;;;0.30;0.30;;;2.80;99.90;;;;;;4899577;29;20048;-83
2021/12/08 01:02:56;;;;;;;0.45;0.45;;;2.80;99.90;;;;;;4899433;29;20052;-83
2021/12/08 01:05:27;;;;;;;0.43;0.43;;;2.90;99.90;;;;;;4900032;29;20047;-83
2021/12/08 01:07:53;;;;;;;2.70;0.73;;;2.90;99.90;;;;;;4900148;29;20048;-83
2021/12/08 01:10:23;;;;;;;0.22;0.22;;;2.80;99.90;;;;;;4899672;29;20556;-83
2021/12/08 01:12:50;;;;;;;0.20;0.20;;;2.80;99.90;;;;;;4899562;29;20568;-83
2021/12/08 01:15:17;;;;;;;0.43;0.43;;;2.90;99.90;;;;;;4883389;29;20120;-83
2021/12/08 01:17:43;;;;;;;0.68;0.68;;;2.90;99.90;;;;;;4899428;29;20091;-83
2021/12/08 01:20:13;;;;;;;0.45;0.45;;;2.90;99.90;;;;;;4899497;29;20091;-83
2021/12/08 01:22:39;;;;;;;0.40;0.40;;;2.90;99.90;;;;;;4916305;29;20091;-83
2021/12/08 01:25:06;;;;;;;0.30;0.30;;;2.90;99.90;;;;;;4918005;29;20036;-83
2021/12/08 01:27:33;;;;;;;0.25;0.25;;;2.90;99.90;;;;;;4918122;29;20142;-83
2021/12/08 01:29:59;;;;;;;2.00;1.85;;;3.00;99.90;;;;;;4918573;29;20130;-83
2021/12/08 01:32:25;;;;;;;0.20;0.20;;;3.00;99.90;;;;;;4918156;29;20496;-83
2021/12/08 01:34:53;;;;;;;0.20;0.20;;;3.00;99.90;;;;;;4918356;29;20044;-83
2021/12/08 01:37:20;;;;;;;3.83;0.52;;;3.00;99.90;;;;;;4920800;29;20056;-84
2021/12/08 01:39:46;;;;;;;0.55;0.55;;;3.00;99.90;;;;;;4935092;29;20074;-82
2021/12/08 01:42:17;;;;;;;0.77;0.77;;;3.00;99.90;;;;;;4918231;29;20083;-83
2021/12/08 01:47:28;;;;;;;0.30;0.30;;;3.00;99.90;;;;;;4918173;29;20530;-82
2021/12/08 01:49:54;;;;;;;2.53;0.85;;;3.00;99.90;;;;;;4918098;29;20052;-82
2021/12/08 01:52:20;;;;;;;1.17;1.10;;;3.00;99.90;;;;;;4904823;29;20449;-82
2021/12/08 01:54:46;;;;;;;7.60;2.15;;;3.00;99.90;;;;;;4899095;29;20044;-82
2021/12/08 01:57:12;;;;;;;0.30;0.30;;;3.00;99.90;;;;;;4899210;29;20055;-83
2021/12/08 01:59:38;;;;;;;0.77;0.70;;;3.00;99.90;;;;;;4899335;29;20143;-82
2021/12/08 02:02:04;;;;;;;0.30;0.30;;;3.00;99.90;;;;;;4899186;29;20040;-82
2021/12/08 02:04:29;;;;;;;0.57;0.57;;;3.10;99.90;;;;;;4916491;29;20521;-81
2021/12/08 02:06:57;;;;;;;0.28;0.28;;;3.00;99.90;;;;;;4899126;29;20047;-82
2021/12/08 02:09:23;;;;;;;1.10;1.10;;;3.00;99.90;;;;;;4899198;29;20052;-83
2021/12/08 02:11:53;;;;;;;0.30;0.30;;;3.00;99.90;;;;;;4898982;29;20052;-83
2021/12/08 02:14:18;;;;;;;0.47;0.47;;;3.00;99.90;;;;;;4899248;29;20043;-83
2021/12/08 02:16:45;;;;;;;0.30;0.30;;;3.00;99.90;;;;;;4898958;29;20123;-82
2021/12/08 02:19:11;;;;;;;1.25;1.25;;;3.00;99.90;;;;;;4899152;29;20063;-82
2021/12/08 02:21:40;;;;;;;0.30;0.30;;;3.10;99.90;;;;;;4898723;29;20044;-82
2021/12/08 02:24:11;;;;;;;0.40;0.40;;;3.20;99.90;;;;;;4898848;29;20139;-82
2021/12/08 02:26:39;;;;;;;0.30;0.30;;;3.10;99.90;;;;;;4898848;29;20127;-82
2021/12/08 02:29:09;;;;;;;0.40;0.40;;;3.00;99.90;;;;;;4901430;29;20083;-82
2021/12/08 02:31:45;;;;;;;0.35;0.35;;;3.00;99.90;;;;;;4919119;29;20453;-83
2021/12/08 02:50:19;;;;;;;1.98;0.85;;;3.00;99.90;;;;;;4901686;29;20135;-83
2021/12/08 02:52:44;;;;;;;2.47;2.38;;;3.00;99.90;;;;;;4901916;29;20408;-82
2021/12/08 02:55:10;;;;;;;0.35;0.35;;;3.00;99.90;;;;;;4901321;29;20040;-82
2021/12/08 02:57:36;;;;;;;5.78;1.75;;;3.00;99.90;;;;;;4901777;29;20048;-82
2021/12/08 03:00:06;;;;;;;2.20;0.80;;;3.00;99.90;;;;;;4901671;29;20100;-81
2021/12/08 03:02:31;;;;;;;0.47;0.47;;;3.00;99.90;;;;;;4901813;29;20492;-82
2021/12/08 03:04:57;;;;;;;0.55;0.30;;;3.00;99.90;;;;;;4901478;29;20044;-83
2021/12/08 03:07:23;;;;;;;0.25;0.25;;;3.00;99.90;;;;;;4919606;29;20061;-83
2021/12/08 03:09:49;;;;;;;0.60;0.60;;;3.00;99.90;;;;;;4901410;29;20051;-82
2021/12/08 03:12:14;;;;;;;0.60;0.60;;;3.00;99.90;;;;;;4901446;29;20130;-82
2021/12/08 03:14:40;;;;;;;0.38;0.38;;;3.00;99.90;;;;;;4901707;29;20052;-82
2021/12/08 03:17:09;;;;;;;0.50;0.50;;;3.10;99.90;;;;;;4919187;29;20404;-82
2021/12/08 03:19:35;;;;;;;0.90;0.60;;;3.10;99.90;;;;;;4937242;29;20052;-82
2021/12/08 03:22:09;;;;;;;0.52;0.52;;;3.10;99.90;;;;;;4919757;29;20118;-82
2021/12/08 03:24:37;;;;;;;0.30;0.30;;;3.10;99.90;;;;;;4920001;29;20488;-82
2021/12/08 03:29:53;;;;;;;0.30;0.30;;;3.20;99.90;;;;;;4936992;29;20396;-82
2021/12/08 03:32:31;;;;;;;2.03;1.95;;;3.20;99.90;;;;;;4904066;29;20048;-82
2021/12/08 03:34:57;;;;;;;1.13;1.13;;;3.20;99.90;;;;;;4919760;29;20054;-82
2021/12/08 03:37:29;;;;;;;0.60;0.60;;;3.20;99.90;;;;;;4920087;29;20043;-82
2021/12/08 03:39:57;;;;;;;0.22;0.22;;;3.30;99.90;;;;;;4919618;29;20047;-82
2021/12/08 03:42:26;;;;;;;1.60;0.70;;;3.30;99.90;;;;;;4919603;29;20566;-81
2021/12/08 03:44:55;;;;;;;0.43;0.43;;;3.30;99.90;;;;;;4936798;29;20048;-82
2021/12/08 03:47:26;;;;;;;0.28;0.28;;;3.30;99.90;;;;;;4919387;29;20059;-82
2021/12/08 03:49:53;;;;;;;0.55;0.52;;;3.40;99.90;;;;;;4951681;29;20054;-82
2021/12/08 03:52:19;;;;;;;0.57;0.57;;;3.30;99.90;;;;;;4919452;29;20052;-82
2021/12/08 03:54:44;;;;;;;1.48;1.38;;;3.40;99.90;;;;;;4950764;29;20050;-82
2021/12/08 03:57:10;;;;;;;0.22;0.22;;;3.40;99.90;;;;;;4919347;29;20063;-82
2021/12/08 03:59:36;;;;;;;9.20;1.10;;;3.40;99.90;;;;;;4951188;29;20051;-82
2021/12/08 04:02:03;;;;;;;0.60;0.60;;;3.40;99.90;;;;;;4951255;29;20049;-82
2021/12/08 04:04:39;;;;;;;0.35;0.20;;;3.40;99.90;;;;;;4920028;29;20058;-82
2021/12/08 04:07:06;;;;;;;0.63;0.63;;;3.50;99.90;;;;;;4919263;29;20051;-82
2021/12/08 04:09:42;;;;;;;1.67;1.23;;;3.50;99.90;;;;;;4935105;29;20090;-82
2021/12/08 04:12:10;;;;;;;0.17;0.17;;;3.50;99.90;;;;;;4919158;29;20114;-82
2021/12/08 04:14:39;;;;;;;0.95;0.60;;;3.70;99.90;;;;;;4919124;29;20071;-82
2021/12/08 04:17:19;;;;;;;2.55;2.45;;;3.60;99.90;;;;;;4918842;29;20066;-81
2021/12/08 04:19:46;;;;;;;1.42;1.40;;;3.60;99.90;;;;;;4919406;29;20381;-82
2021/12/08 04:22:35;;;;;;;0.60;0.60;;;3.60;99.90;;;;;;4918662;29;20044;-82
2021/12/08 04:25:06;;;;;;;2.20;1.15;;;3.60;99.90;;;;;;4918814;29;20054;-82
2021/12/08 04:27:35;;;;;;;0.20;0.20;;;3.70;99.90;;;;;;4918964;29;20074;-82
2021/12/08 04:30:02;;;;;;;0.82;0.82;;;3.70;99.90;;;;;;4936308;29;20058;-82
2021/12/08 04:32:30;;;;;;;0.30;0.30;;;3.70;99.90;;;;;;4935873;29;20044;-82
2021/12/08 04:35:00;;;;;;;5.35;0.95;;;3.70;99.90;;;;;;4936000;29;20060;-83
2021/12/08 04:37:31;;;;;;;1.75;1.45;;;3.70;99.90;;;;;;4935925;29;20452;-83
2021/12/08 04:40:22;;;;;;;1.25;1.15;;;3.80;99.90;;;;;;4918992;29;20453;-82
2021/12/08 04:45:59;;;;;;;1.00;1.00;;;3.80;99.90;;;;;;4918720;29;20056;-82
2021/12/08 05:04:23;;;;;;;1.98;1.88;;;3.80;99.90;;;;;;4950440;29;20138;-82
2021/12/08 05:09:37;;;;;;;1.33;0.88;;;3.80;99.90;;;;;;4935807;29;20052;-85
2021/12/08 05:12:10;;;;;;;5.13;1.85;;;3.90;99.90;;;;;;4918919;29;20052;-83
2021/12/08 05:15:10;;;;;;;1.50;0.60;;;3.90;99.90;;;;;;4950470;29;20055;-84
2021/12/08 05:18:04;;;;;;;0.40;0.40;;;3.90;99.90;;;;;;4935494;29;20045;-83
2021/12/08 05:20:39;;;;;;;0.63;0.63;;;3.90;99.90;;;;;;4935578;29;20043;-83
2021/12/08 05:23:15;;;;;;;1.55;1.40;;;3.90;99.90;;;;;;4918329;29;20088;-83
2021/12/08 05:25:43;;;;;;;1.10;0.95;;;4.00;99.90;;;;;;4903139;29;20052;-83
2021/12/08 05:28:13;;;;;;;4.05;0.65;;;3.90;99.90;;;;;;4935348;29;20064;-83
2021/12/08 05:30:46;;;;;;;1.38;0.93;;;3.90;99.90;;;;;;4918579;29;20048;-83
2021/12/08 05:33:14;;;;;;;0.30;0.30;;;3.90;99.90;;;;;;4918387;29;20131;-83
2021/12/08 05:35:42;;;;;;;0.77;0.77;;;3.80;99.90;;;;;;4918208;29;20079;-83
2021/12/08 05:38:08;;;;;;;0.30;0.30;;;3.80;99.90;;;;;;4918365;29;20083;-83
2021/12/08 05:40:54;;;;;;;1.75;1.40;;;3.80;99.90;;;;;;4935275;29;20146;-83
2021/12/08 05:43:20;;;;;;;1.83;1.65;;;3.80;99.90;;;;;;4918377;29;20047;-83
2021/12/08 05:45:48;;;;;;;1.27;1.17;;;3.70;99.90;;;;;;4935391;29;20052;-84
2021/12/08 05:48:15;;;;;;;0.68;0.65;;;3.70;99.90;;;;;;4935173;29;20443;-83
2021/12/08 05:50:52;;;;;;;1.05;1.05;;;3.70;99.90;;;;;;4918273;29;20040;-84
2021/12/08 05:53:19;;;;;;;0.22;0.22;;;3.70;99.90;;;;;;4935319;29;20047;-83
2021/12/08 05:55:46;;;;;;;2.38;1.75;;;3.70;99.90;;;;;;4918172;29;20048;-83
2021/12/08 05:58:13;;;;;;;1.27;1.27;;;3.70;99.90;;;;;;4935273;29;20048;-83
2021/12/08 06:00:45;;;;;;;0.57;0.57;;;3.70;99.90;;;;;;4918340;29;20044;-83
2021/12/08 06:03:11;;;;;;;0.20;0.20;;;3.70;99.90;;;;;;4921012;29;20489;-83
2021/12/08 06:05:38;;;;;;;3.92;1.98;;;3.70;99.90;;;;;;4938666;29;20046;-83
2021/12/08 06:08:04;;;;;;;0.77;0.77;;;3.70;99.90;;;;;;4938841;29;20048;-83
2021/12/08 06:10:35;;;;;;;0.70;0.70;;;3.60;99.90;;;;;;4906066;29;20044;-83
2021/12/08 06:13:03;;;;;;;1.05;0.88;;;3.50;99.90;;;;;;4953464;29;20056;-83
2021/12/08 06:15:29;;;;;;;1.35;1.13;;;3.50;99.90;;;;;;4921594;29;20075;-83
2021/12/08 06:17:55;;;;;;;6.07;1.02;;;3.40;99.90;;;;;;4938565;29;20059;-83
2021/12/08 06:20:22;;;;;;;0.40;0.40;;;3.40;99.90;;;;;;4921700;29;20043;-83
2021/12/08 06:22:51;;;;;;;0.40;0.40;;;3.30;99.90;;;;;;4921318;29;20060;-82
2021/12/08 06:25:20;;;;;;;2.83;2.58;;;3.20;99.90;;;;;;4921325;29;20179;-83
2021/12/08 06:27:46;;;;;;;0.82;0.82;;;3.20;99.90;;;;;;4921096;29;20067;-83
2021/12/08 06:30:15;;;;;;;0.50;0.50;;;3.10;99.90;;;;;;4921225;29;20099;-82
2021/12/08 06:32:42;;;;;;;0.52;0.52;;;3.10;99.90;;;;;;4921246;29;20128;-83
2021/12/08 06:35:12;;;;;;;2.17;2.10;;;3.20;99.90;;;;;;4921528;29;20362;-82
2021/12/08 06:37:41;;;;;;;0.32;0.32;;;3.20;99.90;;;;;;4921398;29;20057;-83
2021/12/08 06:40:13;;;;;;;0.63;0.63;;;3.30;99.90;;;;;;4921374;29;20107;-82
2021/12/08 06:42:42;;;;;;;0.82;0.82;;;3.20;99.90;;;;;;4920892;29;20055;-83
2021/12/08 06:45:15;;;;;;;1.15;1.05;;;3.10;99.90;;;;;;4921007;29;20523;-83
2021/12/08 06:47:42;;;;;;;1.35;1.35;;;3.10;99.90;;;;;;4952649;29;20047;-83
2021/12/08 06:50:24;;;;;;;1.67;1.58;;;3.10;99.90;;;;;;4920965;29;20393;-83
2021/12/08 06:52:51;;;;;;;0.43;0.40;;;3.10;99.90;;;;;;4920808;29;20138;-84
2021/12/08 06:55:25;;;;;;;0.52;0.52;;;3.10;99.90;;;;;;4921082;29;20496;-84
2021/12/08 06:58:07;;;;;;;1.52;1.52;;;3.10;99.90;;;;;;4953039;29;20514;-84
2021/12/08 07:01:01;;;;;;;0.70;0.40;;;3.10;99.90;;;;;;4921142;29;20393;-84
2021/12/08 07:03:40;;;;;;;0.63;0.63;;;3.10;99.90;;;;;;4937823;29;20056;-84
2021/12/08 07:06:19;;;;;;;0.45;0.45;;;3.10;99.90;;;;;;4938024;29;20032;-84
2021/12/08 07:08:52;;;;;;;0.73;0.73;;;3.10;99.90;;;;;;4952716;29;20433;-84
2021/12/08 07:11:21;;;;;;;3.50;1.30;;;3.20;99.90;;;;;;4920469;29;20048;-83
2021/12/08 07:13:48;;;;;;;1.85;0.90;;;3.20;99.90;;;;;;4920036;29;20135;-84
2021/12/08 07:16:19;;;;;;;4.57;0.60;;;3.20;99.90;;;;;;4920464;29;20089;-83
2021/12/08 07:19:08;;;;;;;2.70;0.82;;;3.30;99.90;;;;;;4952226;29;20048;-84
2021/12/08 07:21:37;;;;;;;0.40;0.40;;;3.20;99.90;;;;;;4937473;29;20054;-84
2021/12/08 07:24:17;;;;;;;0.98;0.98;;;3.20;99.90;;;;;;4920664;29;20138;-83
2021/12/08 07:26:50;;;;;;;0.32;0.32;;;3.20;99.90;;;;;;4951320;29;20118;-83
2021/12/08 07:29:22;;;;;;;0.45;0.45;;;3.20;99.90;;;;;;4920170;29;20063;-84
2021/12/08 07:31:53;;;;;;;0.90;0.90;;;3.20;99.90;;;;;;4920005;29;20040;-84
2021/12/08 07:34:21;;;;;;;1.15;1.10;;;3.10;99.90;;;;;;4920465;29;20416;-83
2021/12/08 07:36:51;;;;;;;0.45;0.45;;;3.20;99.90;;;;;;4937064;29;20055;-84
2021/12/08 07:39:27;;;;;;;1.10;0.70;;;3.10;99.90;;;;;;4920034;29;20054;-84
2021/12/08 07:41:58;;;;;;;0.68;0.55;;;3.20;99.90;;;;;;4920142;29;20399;-85
2021/12/08 07:44:24;;;;;;;0.85;0.55;;;3.20;99.90;;;;;;4920153;29;20221;-84
2021/12/08 07:47:02;;;;;;;0.70;0.70;;;3.20;99.90;;;;;;4919876;29;20130;-84
2021/12/08 07:49:32;;;;;;;0.40;0.40;;;3.20;99.90;;;;;;4936695;29;20083;-84
2021/12/08 07:52:04;;;;;;;1.33;1.25;;;3.20;99.90;;;;;;4936769;29;20043;-84
2021/12/08 07:54:32;;;;;;;0.88;0.88;;;3.20;99.90;;;;;;4919913;29;20050;-85
2021/12/08 07:57:01;;;;;;;2.33;1.50;;;3.30;99.90;;;;;;4936898;29;20468;-84
2021/12/08 07:59:28;;;;;;;0.43;0.43;;;3.30;99.90;;;;;;4936916;29;20044;-84
2021/12/08 08:01:57;;;;;;;0.50;0.50;;;3.30;99.90;;;;;;4920427;29;20508;-85
2021/12/08 08:04:25;;;;;;;0.60;0.60;;;3.30;99.90;;;;;;4937681;29;20039;-85
2021/12/08 08:06:55;;;;;;;0.30;0.30;;;3.30;99.90;;;;;;4937654;29;20039;-85
2021/12/08 08:09:25;;;;;;;3.65;0.90;;;3.30;99.90;;;;;;4919588;29;20122;-85
2021/12/08 08:11:57;;;;;;;0.20;0.20;;;3.30;99.90;;;;;;4937096;29;20051;-86
2021/12/08 08:14:29;;;;;;;1.00;1.00;;;3.40;99.90;;;;;;4919491;29;20047;-85
2021/12/08 08:16:56;;;;;;;0.20;0.20;;;3.40;99.90;;;;;;4919685;29;20448;-84
2021/12/08 08:19:28;;;;;;;1.05;1.05;;;3.40;99.90;;;;;;4936260;29;20042;-84
2021/12/08 08:22:03;;;;;;;0.28;0.28;;;3.50;99.90;;;;;;4919586;29;20066;-84
2021/12/08 08:24:29;;;;;;;0.63;0.63;;;3.50;99.90;;;;;;4919161;29;20400;-84
2021/12/08 08:27:01;;;;;;;0.30;0.30;;;3.50;99.90;;;;;;4935240;29;20132;-84
2021/12/08 08:29:27;;;;;;;0.30;0.30;;;3.50;99.90;;;;;;4918372;29;20147;-83
2021/12/08 08:32:00;;;;;;;4.68;1.05;;;3.60;99.90;;;;;;4936162;29;20471;-84
2021/12/08 08:34:33;;;;;;;0.20;0.20;;;3.60;99.90;;;;;;4951167;29;20091;-83
2021/12/08 08:36:59;;;;;;;0.20;0.20;;;3.80;99.90;;;;;;4936443;29;20047;-83
2021/12/08 08:39:29;;;;;;;0.45;0.45;;;3.70;99.90;;;;;;4951182;29;20124;-84
2021/12/08 08:42:13;;;;;;;0.20;0.20;;;3.80;99.90;;;;;;4936016;29;20126;-84
2021/12/08 08:44:42;;;;;;;0.30;0.30;;;3.90;99.90;;;;;;4918871;29;20087;-84
2021/12/08 08:47:12;;;;;;;0.30;0.30;;;3.90;99.90;;;;;;4918825;29;20567;-84
2021/12/08 08:49:39;;;;;;;0.30;0.30;;;3.90;99.90;;;;;;4936150;29;20391;-84
2021/12/08 08:52:14;;;;;;;0.30;0.30;;;3.90;99.90;;;;;;4935973;29;20118;-85
2021/12/08 08:54:45;;;;;;;0.65;0.65;;;4.00;99.90;;;;;;4935863;29;20050;-85
2021/12/08 08:57:28;;;;;;;0.30;0.30;;;4.00;99.90;;;;;;4934963;29;20099;-84
2021/12/08 08:59:58;;;;;;;0.50;0.50;;;4.10;99.90;;;;;;4919915;29;20090;-84
2021/12/08 09:02:30;;;;;;;10.57;3.50;;;4.10;99.90;;;;;;4935877;29;20090;-84
2021/12/08 09:05:05;;;;;;;0.10;0.10;;;4.10;99.90;;;;;;4918733;29;20043;-84
2021/12/08 09:07:35;;;;;;;0.60;0.60;;;4.10;99.90;;;;;;4935579;29;20040;-84
2021/12/08 09:10:08;;;;;;;0.57;0.40;;;4.10;99.90;;;;;;4918493;29;20090;-84
2021/12/08 09:12:39;;;;;;;0.60;0.60;;;4.10;99.90;;;;;;4935587;29;20060;-84
2021/12/08 09:15:12;;;;;;;2.45;0.70;;;4.20;99.90;;;;;;4918479;29;20040;-84
2021/12/08 09:17:46;;;;;;;1.40;0.70;;;4.30;99.90;;;;;;4935366;29;20101;-84
2021/12/08 09:20:32;;;;;;;0.30;0.30;;;4.30;99.90;;;;;;4950548;29;20051;-85
2021/12/08 09:23:27;;;;;;;0.43;0.43;;;4.30;99.90;;;;;;4918266;29;20052;-84
2021/12/08 09:26:14;;;;;;;0.85;0.85;;;4.40;99.90;;;;;;4935475;29;20507;-84
2021/12/08 09:28:48;;;;;;;0.30;0.30;;;4.50;99.90;;;;;;4934969;29;20052;-84
2021/12/08 09:31:21;;;;;;;0.50;0.50;;;4.60;99.90;;;;;;4935544;29;20052;-83
2021/12/08 09:34:06;;;;;;;8.93;0.88;;;4.60;99.90;;;;;;4918568;29;20449;-83
2021/12/08 09:36:42;;;;;;;0.90;0.38;;;4.60;99.90;;;;;;4936086;29;20564;-83
2021/12/08 09:39:17;;;;;;;0.70;0.70;;;4.70;99.90;;;;;;4939379;29;20087;-84
2021/12/08 09:41:51;;;;;;;1.95;1.85;;;4.70;99.90;;;;;;4939450;29;20047;-84
2021/12/08 09:44:24;;;;;;;0.65;0.43;;;4.70;99.90;;;;;;4954120;29;20052;-83
2021/12/08 09:46:51;;;;;;;0.68;0.68;;;4.80;99.90;;;;;;4922386;29;20118;-84
2021/12/08 09:49:19;;;;;;;0.13;0.13;;;4.80;99.90;;;;;;4922243;29;20051;-84
2021/12/08 09:51:46;;;;;;;0.30;0.30;;;4.80;99.90;;;;;;4940254;29;20040;-84
2021/12/08 09:54:12;;;;;;;0.20;0.20;;;4.80;99.90;;;;;;4923169;29;20480;-84
2021/12/08 09:56:39;;;;;;;0.68;0.68;;;4.90;99.90;;;;;;4922547;29;20107;-83
2021/12/08 09:59:09;;;;;;;0.20;0.20;;;4.90;99.90;;;;;;4921856;29;20086;-83
2021/12/08 10:01:38;;;;;;;0.65;0.65;;;4.90;99.90;;;;;;4938805;29;20400;-83
2021/12/08 10:04:04;;;;;;;0.77;0.50;;;5.00;99.90;;;;;;4921830;29;20103;-84
2021/12/08 10:06:30;;;;;;;1.85;1.08;;;5.00;99.90;;;;;;4938782;29;20044;-83
2021/12/08 10:08:58;;;;;;;0.20;0.20;;;5.10;99.90;;;;;;4921617;29;20056;-81
2021/12/08 10:11:26;;;;;;;0.20;0.20;;;5.10;99.90;;;;;;4921480;29;20054;-83
2021/12/08 10:13:52;;;;;;;0.57;0.57;;;5.10;99.90;;;;;;4906100;29;20126;-83
2021/12/08 10:16:18;;;;;;;0.50;0.50;;;5.10;99.90;;;;;;4921426;29;20556;-84
2021/12/08 10:18:44;;;;;;;0.40;0.40;;;5.10;99.90;;;;;;4938380;29;20043;-83
2021/12/08 10:21:13;;;;;;;0.50;0.50;;;5.10;99.90;;;;;;4938411;29;20463;-84
2021/12/08 10:23:45;;;;;;;0.95;0.95;;;5.10;99.90;;;;;;4938535;29;20440;-84
2021/12/08 10:26:11;;;;;;;;;;;5.00;99.90;;;;;;4953720;29;20103;-84
2021/12/08 10:28:49;;;;;;;2.72;1.50;;;5.00;99.90;;;;;;4936430;29;20291;-85
2021/12/08 10:31:18;;;;;;;0.40;0.40;;;5.00;99.90;;;;;;4921106;29;20484;-84
2021/12/08 10:34:22;;;;;;;0.38;0.22;;;5.00;99.90;;;;;;4921124;29;20059;-84
2021/12/08 10:37:13;;;;;;;0.17;0.17;;;5.00;99.90;;;;;;4921242;29;20567;-83
2021/12/08 10:39:47;;;;;;;0.52;0.52;;;5.00;99.90;;;;;;4845555;29;20578;-83
2021/12/08 10:42:28;;;;;;;2.47;1.65;;;5.00;99.90;;;;;;4845326;29;20144;-83
2021/12/08 10:47:27;;;;;;;0.57;0.57;;;5.00;99.90;;;;;;4861346;29;20101;-83
2021/12/08 10:55:22;;;;;;;0.95;0.32;;;5.10;99.90;;;;;;4860652;29;20055;-84
2021/12/08 10:57:53;;;;;;;1.02;1.00;;;5.20;99.90;;;;;;4860909;29;20065;-84
2021/12/08 11:00:25;;;;;;;0.20;0.20;;;5.30;99.90;;;;;;4845474;29;20049;-84
2021/12/08 11:02:52;;;;;;;;;;;5.30;99.90;;;;;;4860908;29;20566;-84
2021/12/08 11:05:24;;;;;;;1.00;1.00;;;5.40;99.90;;;;;;4860413;29;20381;-84
2021/12/08 11:08:01;;;;;;;0.45;0.32;;;5.50;99.90;;;;;;4860484;29;20052;-84
2021/12/08 11:10:28;;;;;;;0.30;0.30;;;5.50;99.90;;;;;;4844943;29;20068;-83
2021/12/08 11:12:56;;;;;;;0.30;0.30;;;5.60;99.90;;;;;;4860820;29;20057;-83
2021/12/08 11:15:23;;;;;;;0.52;0.52;;;5.60;99.90;;;;;;4845075;29;20046;-87
2021/12/08 11:18:30;;;;;;;0.73;0.73;;;5.70;99.90;;;;;;4919115;29;20072;-83
2021/12/08 11:21:03;;;;;;;0.30;0.30;;;5.60;99.90;;;;;;4920750;29;20130;-83
2021/12/08 11:23:42;;;;;;;0.30;0.30;;;5.60;99.90;;;;;;4936141;29;20055;-83
2021/12/08 11:26:25;;;;;;;0.82;0.65;;;5.60;99.90;;;;;;4952003;29;20047;-84
2021/12/08 11:29:05;;;;;;;1.40;0.85;;;5.60;99.90;;;;;;4937126;29;20055;-83
2021/12/08 11:31:59;;;;;;;0.57;0.57;;;5.70;99.90;;;;;;4939013;29;20412;-82
2021/12/08 11:34:47;;;;;;;0.13;0.13;;;5.70;99.90;;;;;;4917710;29;20070;-82
2021/12/08 11:37:16;;;;;;;0.80;0.68;;;5.70;99.90;;;;;;4920315;29;20059;-82
2021/12/08 11:39:44;;;;;;;1.13;1.05;;;5.70;99.90;;;;;;4951787;29;20059;-82
2021/12/08 11:42:21;;;;;;;0.30;0.30;;;5.70;99.90;;;;;;4921022;29;20066;-82
2021/12/08 11:44:53;;;;;;;2.05;1.33;;;5.80;99.90;;;;;;4952486;29;20063;-82
2021/12/08 11:47:23;;;;;;;0.30;0.30;;;5.80;99.90;;;;;;4919908;29;20047;-82
2021/12/08 11:49:56;;;;;;;0.40;0.40;;;5.70;99.90;;;;;;4919964;29;20055;-82
2021/12/08 11:52:26;;;;;;;2.08;0.50;;;5.70;99.90;;;;;;4920109;29;20123;-82
2021/12/08 11:54:56;;;;;;;0.20;0.20;;;5.80;99.90;;;;;;4919885;29;20052;-82
2021/12/08 11:57:33;;;;;;;0.30;0.30;;;5.80;99.90;;;;;;4951874;29;20071;-82
2021/12/08 12:00:28;;;;;;;0.30;0.30;;;5.90;99.90;;;;;;4919355;29;20047;-82
2021/12/08 12:03:00;;;;;;;0.38;0.38;;;5.90;99.90;;;;;;4917929;29;20172;-82
2021/12/08 12:05:35;;;;;;;0.20;0.20;;;5.90;99.90;;;;;;4936732;29;20054;-81
2021/12/08 12:08:04;;;;;;;0.32;0.32;;;5.90;99.90;;;;;;4919956;29;20528;-82
2021/12/08 12:10:34;;;;;;;0.63;0.63;;;5.90;99.90;;;;;;4919628;29;20386;-82
2021/12/08 12:13:00;;;;;;;0.73;0.28;;;5.80;99.90;;;;;;4936786;29;20056;-82
2021/12/08 12:15:26;;;;;;;2.60;1.88;;;5.90;99.90;;;;;;4919650;29;20091;-83
2021/12/08 12:17:52;;;;;;;0.70;0.65;;;5.90;99.90;;;;;;4919821;29;20083;-83
2021/12/08 12:20:23;;;;;;;0.68;0.68;;;5.90;99.90;;;;;;4919353;29;20052;-84
2021/12/08 12:23:20;;;;;;;0.38;0.38;;;5.80;99.90;;;;;;4936373;29;20048;-82
2021/12/08 12:25:53;;;;;;;0.50;0.45;;;5.80;99.90;;;;;;4919425;29;20127;-84
2021/12/08 12:28:25;;;;;;;0.90;0.90;;;5.80;99.90;;;;;;4935064;29;20098;-83
2021/12/08 12:31:21;;;;;;;1.08;0.38;;;5.80;99.90;;;;;;4951125;29;20043;-83
2021/12/08 12:33:49;;;;;;;1.55;0.55;;;5.90;99.90;;;;;;4918962;29;20095;-84
2021/12/08 12:36:33;;;;;;;3.63;1.23;;;5.90;99.90;;;;;;4923415;29;20452;-83
2021/12/08 12:39:18;;;;;;;1.17;0.40;;;5.90;99.90;;;;;;4928951;29;20393;-83
2021/12/08 12:45:33;;;;;;;0.82;0.80;;;5.90;99.90;;;;;;4936308;29;20051;-83
2021/12/08 12:48:19;;;;;;;0.20;0.20;;;5.80;99.90;;;;;;4919177;29;20048;-83
2021/12/08 12:51:01;;;;;;;0.65;0.65;;;5.80;99.90;;;;;;4919204;29;20086;-86
2021/12/08 12:53:31;;;;;;;1.63;1.52;;;5.80;99.90;;;;;;4903737;29;20055;-83
2021/12/08 12:55:57;;;;;;;6.10;1.25;;;5.80;99.90;;;;;;4918869;29;20123;-82
2021/12/08 12:58:22;;;;;;;0.13;0.13;;;5.90;99.90;;;;;;4950947;29;20134;-84
2021/12/08 13:01:10;;;;;;;0.20;0.20;;;5.80;99.90;;;;;;4918930;29;20400;-82
2021/12/08 13:03:44;;;;;;;1.10;0.77;;;5.80;99.90;;;;;;4918606;29;20115;-83
2021/12/08 13:06:13;;;;;;;0.70;0.52;;;5.80;99.90;;;;;;4918674;29;20060;-85
2021/12/08 13:08:49;;;;;;;0.45;0.38;;;5.80;99.90;;;;;;4950726;29;20056;-84
2021/12/08 13:11:33;;;;;;;0.50;0.50;;;5.80;99.90;;;;;;4935100;29;20044;-84
2021/12/08 13:14:01;;;;;;;0.10;0.10;;;5.70;99.90;;;;;;4935863;29;20052;-85
2021/12/08 13:16:33;;;;;;;0.50;0.50;;;5.70;99.90;;;;;;4919276;29;20070;-83
2021/12/08 13:19:00;;;;;;;;;;;5.70;99.90;;;;;;4919255;29;20544;-84
2021/12/08 13:21:41;;;;;;;2.45;0.50;;;5.70;99.90;;;;;;4950940;29;19930;-84
2021/12/08 13:24:36;;;;;;;2.03;1.85;;;5.70;99.90;;;;;;4935960;29;20067;-85
2021/12/08 13:27:16;;;;;;;0.55;0.55;;;5.70;99.90;;;;;;4934815;29;20079;-82
2021/12/08 13:29:48;;;;;;;0.30;0.30;;;5.70;99.90;;;;;;4926550;29;20056;-83
2021/12/08 13:32:26;;;;;;;;;;;5.80;99.90;;;;;;4932443;29;20066;-82
2021/12/08 13:34:57;;;;;;;0.40;0.40;;;5.90;99.90;;;;;;4922526;29;19922;-82
2021/12/08 13:37:29;;;;;;;0.47;0.47;;;5.90;99.90;;;;;;4919276;29;20052;-83
2021/12/08 13:40:05;;;;;;;0.43;0.43;;;5.90;99.90;;;;;;4950524;29;20047;-83
2021/12/08 13:42:33;;;;;;;0.30;0.30;;;5.90;99.90;;;;;;4918537;29;20110;-84
2021/12/08 13:45:02;;;;;;;0.82;0.82;;;5.90;99.90;;;;;;4918865;29;20059;-84
2021/12/08 13:47:38;;;;;;;0.15;0.15;;;5.80;99.90;;;;;;4918548;29;20047;-85
2021/12/08 13:50:19;;;;;;;0.95;0.95;;;5.80;99.90;;;;;;4918675;29;20122;-85
2021/12/08 13:53:10;;;;;;;1.63;1.20;;;5.80;99.90;;;;;;4918367;29;20437;-84
2021/12/08 13:55:48;;;;;;;0.80;0.80;;;5.80;99.90;;;;;;4918627;29;20052;-84
2021/12/08 13:58:19;;;;;;;0.22;0.22;;;5.80;99.90;;;;;;4918395;29;20039;-84
2021/12/08 14:00:47;;;;;;;0.20;0.20;;;5.80;99.90;;;;;;4918238;29;20040;-83
2021/12/08 14:03:18;;;;;;;0.90;0.88;;;5.70;99.90;;;;;;4918246;29;20059;-84
2021/12/08 14:05:49;;;;;;;0.50;0.50;;;5.80;99.90;;;;;;4918630;29;20095;-84
2021/12/08 14:08:25;;;;;;;0.57;0.57;;;5.70;99.90;;;;;;4918184;29;20047;-84
2021/12/08 14:11:02;;;;;;;1.30;0.68;;;5.70;99.90;;;;;;4918170;29;20088;-85
2021/12/08 14:13:33;;;;;;;0.20;0.20;;;5.70;99.90;;;;;;4918195;29;20055;-84
2021/12/08 14:16:02;;;;;;;0.60;0.60;;;5.80;99.90;;;;;;4935289;29;20050;-84